Newburgh, NY

5:06 AM EDT on October 18, 2018 (GMT -0400)
New Windsor Tower | | Change Station
Active Advisory: Freeze Warning

Elev 151 ft 41.49 °N, 74.03 °W | Updated 8 seconds ago

Partly Cloudy
Partly Cloudy
40.1 °F
Feels Like 40 °F
N
1.1
Wind Variable Wind from NNE
Gusts 0.0 mph

Today
High -- | Low -- °F
--% Chance of Precip.
Yesterday
High -- | Low -- °F
Precip. -- in
Pressure 30.19 in
Visibility 10.0 miles
Clouds Few 4000 ft
Windchill 40 °F
Dew Point 28 °F
Humidity 62%
Rainfall 0.00 in
Snow Depth Not available.
7:11 AM 6:10 PM
Waxing Gibbous, 65% visible
METAR KSWF 180845Z 28007G15KT 10SM FEW040 03/00 A3019
Pressure 30.19 in
Visibility 10.0 miles
Clouds Few 4000 ft
Windchill 40 °F
Dew Point 28 °F
Humidity 62%
Rainfall 0.00 in
Snow Depth Not available.
7:11 AM 6:10 PM
Waxing Gibbous, 65% visible
METAR KSWF 180845Z 28007G15KT 10SM FEW040 03/00 A3019

Get Your Daily Forecast Email!

Thanks for signing up!

Be on the lookout for a verification email in your inbox.

You'll start receiving severe weather alerts in your inbox..

×

10-Day Weather Forecast

Almanac

Astronomy

Oct. 18, 2018 Rise Set
Actual Time
Civil Twilight
Nautical Twilight
Astronomical Twilight
Moon
Length of Visible Light
Length of Day
Tomorrow will be .
, % of the Moon is Illuminated

Today's Extremes

State Highs State Lows

Community

WunderPhotos

Category 6

Welcome to Category 6. This is the collective home for Weather Underground's featured writeups by Dr. Jeff Masters (right), Bob Henson (left), Chris Burt, and other regular contributors.

Nearby

Air Quality

  Air Quality AQ Index Pollutant
Not available.

Snow Depth

Station Depth Elevation

Earthquake Activity

City Distance Mag. Time & Date
Minimum magnitude displayed is 2.5.

Coastal Water Temperatures

Place Temperature

Stations

Nearby Weather Stations

Station Location Temp. Windchill Dew Point Humidity Wind Precip. Elev Updated Type
                   

Watches & Warnings

Freeze Warning
Issued: 3:35 AM EDT Oct. 18, 2018 – National Weather Service

... Freeze warning remains in effect from 3 am to 9 am EDT
Friday...

* temperatures... in the mid 30s.

* Timing... 3 am to 9 am Friday morning.

* Impacts... freezing conditions will kill crops and other
sensitive vegetation.

Precautionary/preparedness actions...

A freeze warning means below freezing temperatures are imminent
or highly likely. These conditions will kill crops and other
sensitive vegetation.